sensor_id;sensor_type;location;lat;lon;timestamp;temperature;humidity
13850;DHT22;6995;52.618;13.488;2022-10-31T00:00:18;11.80;1.00
13850;DHT22;6995;52.618;13.488;2022-10-31T00:02:44;11.80;1.00
13850;DHT22;6995;52.618;13.488;2022-10-31T00:05:09;11.70;1.00
13850;DHT22;6995;52.618;13.488;2022-10-31T00:07:35;11.60;1.00
13850;DHT22;6995;52.618;13.488;2022-10-31T00:10:01;11.60;1.00
13850;DHT22;6995;52.618;13.488;2022-10-31T00:12:26;11.50;1.00
13850;DHT22;6995;52.618;13.488;2022-10-31T00:14:52;11.50;1.00
13850;DHT22;6995;52.618;13.488;2022-10-31T00:17:18;11.50;1.00
13850;DHT22;6995;52.618;13.488;2022-10-31T00:19:44;11.50;1.00
13850;DHT22;6995;52.618;13.488;2022-10-31T00:22:09;11.60;1.00
13850;DHT22;6995;52.618;13.488;2022-10-31T00:24:35;11.50;1.00
13850;DHT22;6995;52.618;13.488;2022-10-31T00:27:01;11.50;1.00
13850;DHT22;6995;52.618;13.488;2022-10-31T00:29:26;11.50;1.00
13850;DHT22;6995;52.618;13.488;2022-10-31T00:31:52;11.50;1.00
13850;DHT22;6995;52.618;13.488;2022-10-31T00:34:18;11.50;1.00
13850;DHT22;6995;52.618;13.488;2022-10-31T00:36:44;11.50;1.00
13850;DHT22;6995;52.618;13.488;2022-10-31T00:39:09;11.50;1.00
13850;DHT22;6995;52.618;13.488;2022-10-31T00:41:35;11.40;1.00
13850;DHT22;6995;52.618;13.488;2022-10-31T00:44:01;11.40;1.00
13850;DHT22;6995;52.618;13.488;2022-10-31T00:46:26;11.30;1.00
13850;DHT22;6995;52.618;13.488;2022-10-31T00:48:52;11.30;1.00
13850;DHT22;6995;52.618;13.488;2022-10-31T00:51:18;11.30;1.00
13850;DHT22;6995;52.618;13.488;2022-10-31T00:53:43;11.20;1.00
13850;DHT22;6995;52.618;13.488;2022-10-31T00:56:09;11.20;1.00
13850;DHT22;6995;52.618;13.488;2022-10-31T00:58:35;11.20;1.00
13850;DHT22;6995;52.618;13.488;2022-10-31T01:01:01;11.20;1.00
13850;DHT22;6995;52.618;13.488;2022-10-31T01:03:30;11.20;1.00
13850;DHT22;6995;52.618;13.488;2022-10-31T01:06:07;11.20;1.00
13850;DHT22;6995;52.618;13.488;2022-10-31T01:08:34;11.20;1.00
13850;DHT22;6995;52.618;13.488;2022-10-31T01:11:10;11.10;1.00
13850;DHT22;6995;52.618;13.488;2022-10-31T01:13:37;11.00;1.00
13850;DHT22;6995;52.618;13.488;2022-10-31T01:16:04;11.00;1.00
13850;DHT22;6995;52.618;13.488;2022-10-31T01:18:30;10.90;1.00
13850;DHT22;6995;52.618;13.488;2022-10-31T01:21:01;10.90;1.00
13850;DHT22;6995;52.618;13.488;2022-10-31T01:23:27;10.90;1.00
13850;DHT22;6995;52.618;13.488;2022-10-31T01:26:26;10.90;1.00
13850;DHT22;6995;52.618;13.488;2022-10-31T01:28:53;10.90;1.00
13850;DHT22;6995;52.618;13.488;2022-10-31T01:31:21;10.90;1.00
13850;DHT22;6995;52.618;13.488;2022-10-31T01:33:47;10.90;1.00
13850;DHT22;6995;52.618;13.488;2022-10-31T01:38:44;10.90;1.00
13850;DHT22;6995;52.618;13.488;2022-10-31T01:41:12;10.80;1.00
13850;DHT22;6995;52.618;13.488;2022-10-31T01:44:02;10.80;1.00
13850;DHT22;6995;52.618;13.488;2022-10-31T01:46:37;10.70;1.00
13850;DHT22;6995;52.618;13.488;2022-10-31T01:49:11;10.70;1.00
13850;DHT22;6995;52.618;13.488;2022-10-31T01:51:41;10.70;1.00
13850;DHT22;6995;52.618;13.488;2022-10-31T01:54:14;10.70;1.00
13850;DHT22;6995;52.618;13.488;2022-10-31T01:56:42;10.70;1.00
13850;DHT22;6995;52.618;13.488;2022-10-31T01:59:11;10.60;1.00
13850;DHT22;6995;52.618;13.488;2022-10-31T02:01:38;10.60;1.00
13850;DHT22;6995;52.618;13.488;2022-10-31T02:04:04;10.60;1.00
13850;DHT22;6995;52.618;13.488;2022-10-31T02:06:51;10.60;1.00
13850;DHT22;6995;52.618;13.488;2022-10-31T02:09:19;10.60;1.00
13850;DHT22;6995;52.618;13.488;2022-10-31T02:11:52;10.60;1.00
13850;DHT22;6995;52.618;13.488;2022-10-31T02:14:19;10.60;1.00
13850;DHT22;6995;52.618;13.488;2022-10-31T02:16:46;10.50;1.00
13850;DHT22;6995;52.618;13.488;2022-10-31T02:19:18;10.60;1.00
13850;DHT22;6995;52.618;13.488;2022-10-31T02:22:02;10.60;1.00
13850;DHT22;6995;52.618;13.488;2022-10-31T02:24:45;10.50;1.00
13850;DHT22;6995;52.618;13.488;2022-10-31T02:30:12;10.50;1.00
13850;DHT22;6995;52.618;13.488;2022-10-31T02:35:41;10.40;1.00
13850;DHT22;6995;52.618;13.488;2022-10-31T02:43:37;10.40;1.00
13850;DHT22;6995;52.618;13.488;2022-10-31T02:46:27;10.40;1.00
13850;DHT22;6995;52.618;13.488;2022-10-31T02:49:02;10.40;1.00
13850;DHT22;6995;52.618;13.488;2022-10-31T02:51:30;10.40;1.00
13850;DHT22;6995;52.618;13.488;2022-10-31T02:53:56;10.40;1.00
13850;DHT22;6995;52.618;13.488;2022-10-31T02:56:22;10.40;1.00
13850;DHT22;6995;52.618;13.488;2022-10-31T02:59:02;10.40;1.00
13850;DHT22;6995;52.618;13.488;2022-10-31T03:01:56;10.40;1.00
13850;DHT22;6995;52.618;13.488;2022-10-31T03:12:43;10.30;1.00
13850;DHT22;6995;52.618;13.488;2022-10-31T03:15:23;10.20;1.00
13850;DHT22;6995;52.618;13.488;2022-10-31T03:20:23;10.10;1.00
13850;DHT22;6995;52.618;13.488;2022-10-31T03:22:49;10.10;1.00
13850;DHT22;6995;52.618;13.488;2022-10-31T03:25:16;10.10;1.00
13850;DHT22;6995;52.618;13.488;2022-10-31T03:27:43;10.00;1.00
13850;DHT22;6995;52.618;13.488;2022-10-31T03:30:10;10.00;1.00
13850;DHT22;6995;52.618;13.488;2022-10-31T03:32:46;9.90;1.00
13850;DHT22;6995;52.618;13.488;2022-10-31T03:35:15;9.90;1.00
13850;DHT22;6995;52.618;13.488;2022-10-31T03:37:42;9.90;1.00
13850;DHT22;6995;52.618;13.488;2022-10-31T03:40:10;9.90;1.00
13850;DHT22;6995;52.618;13.488;2022-10-31T03:42:43;9.90;1.00
13850;DHT22;6995;52.618;13.488;2022-10-31T03:47:37;9.90;1.00
13850;DHT22;6995;52.618;13.488;2022-10-31T03:50:06;9.90;1.00
13850;DHT22;6995;52.618;13.488;2022-10-31T03:52:42;9.90;1.00
13850;DHT22;6995;52.618;13.488;2022-10-31T03:57:45;9.90;1.00
13850;DHT22;6995;52.618;13.488;2022-10-31T04:00:14;9.90;1.00
13850;DHT22;6995;52.618;13.488;2022-10-31T04:03:30;9.90;1.00
13850;DHT22;6995;52.618;13.488;2022-10-31T04:05:30;9.90;1.00
13850;DHT22;6995;52.618;13.488;2022-10-31T04:07:58;10.00;1.00
13850;DHT22;6995;52.618;13.488;2022-10-31T04:10:25;10.00;1.00
13850;DHT22;6995;52.618;13.488;2022-10-31T04:13:07;10.10;1.00
13850;DHT22;6995;52.618;13.488;2022-10-31T04:15:37;10.20;1.00
13850;DHT22;6995;52.618;13.488;2022-10-31T04:18:04;10.20;1.00
13850;DHT22;6995;52.618;13.488;2022-10-31T04:20:39;10.30;1.00
13850;DHT22;6995;52.618;13.488;2022-10-31T04:23:09;10.20;1.00
13850;DHT22;6995;52.618;13.488;2022-10-31T04:25:36;10.30;1.00
13850;DHT22;6995;52.618;13.488;2022-10-31T04:28:01;10.30;1.00
13850;DHT22;6995;52.618;13.488;2022-10-31T04:30:27;10.30;1.00
13850;DHT22;6995;52.618;13.488;2022-10-31T04:32:54;10.30;1.00
13850;DHT22;6995;52.618;13.488;2022-10-31T04:35:19;10.30;1.00
13850;DHT22;6995;52.618;13.488;2022-10-31T04:37:45;10.20;1.00
13850;DHT22;6995;52.618;13.488;2022-10-31T04:40:11;10.20;1.00
13850;DHT22;6995;52.618;13.488;2022-10-31T04:42:36;10.10;1.00
13850;DHT22;6995;52.618;13.488;2022-10-31T04:45:02;10.20;1.00
13850;DHT22;6995;52.618;13.488;2022-10-31T04:47:31;10.20;1.00
13850;DHT22;6995;52.618;13.488;2022-10-31T04:49:57;10.20;1.00
13850;DHT22;6995;52.618;13.488;2022-10-31T04:52:23;10.10;1.00
13850;DHT22;6995;52.618;13.488;2022-10-31T04:54:48;10.10;1.00
13850;DHT22;6995;52.618;13.488;2022-10-31T04:57:14;10.10;1.00
13850;DHT22;6995;52.618;13.488;2022-10-31T04:59:40;10.10;1.00
13850;DHT22;6995;52.618;13.488;2022-10-31T05:02:06;10.10;1.00
13850;DHT22;6995;52.618;13.488;2022-10-31T05:04:31;10.20;1.00
13850;DHT22;6995;52.618;13.488;2022-10-31T05:06:57;10.10;1.00
13850;DHT22;6995;52.618;13.488;2022-10-31T05:09:22;10.10;1.00
13850;DHT22;6995;52.618;13.488;2022-10-31T05:11:48;10.10;1.00
13850;DHT22;6995;52.618;13.488;2022-10-31T05:14:14;10.20;1.00
13850;DHT22;6995;52.618;13.488;2022-10-31T05:16:39;10.20;1.00
13850;DHT22;6995;52.618;13.488;2022-10-31T05:19:05;10.30;1.00
13850;DHT22;6995;52.618;13.488;2022-10-31T05:21:30;10.30;1.00
13850;DHT22;6995;52.618;13.488;2022-10-31T05:23:56;10.30;1.00
13850;DHT22;6995;52.618;13.488;2022-10-31T05:26:22;10.30;1.00
13850;DHT22;6995;52.618;13.488;2022-10-31T05:28:47;10.30;1.00
13850;DHT22;6995;52.618;13.488;2022-10-31T05:31:13;10.30;1.00
13850;DHT22;6995;52.618;13.488;2022-10-31T05:33:39;10.20;1.00
13850;DHT22;6995;52.618;13.488;2022-10-31T05:36:05;10.20;1.00
13850;DHT22;6995;52.618;13.488;2022-10-31T05:38:35;10.30;1.00
13850;DHT22;6995;52.618;13.488;2022-10-31T05:41:01;10.30;1.00
13850;DHT22;6995;52.618;13.488;2022-10-31T05:43:28;10.30;1.00
13850;DHT22;6995;52.618;13.488;2022-10-31T05:45:55;10.30;1.00
13850;DHT22;6995;52.618;13.488;2022-10-31T05:48:22;10.30;1.00
13850;DHT22;6995;52.618;13.488;2022-10-31T05:50:48;10.40;1.00
13850;DHT22;6995;52.618;13.488;2022-10-31T05:53:14;10.50;1.00
13850;DHT22;6995;52.618;13.488;2022-10-31T05:55:42;10.50;1.00
13850;DHT22;6995;52.618;13.488;2022-10-31T05:58:09;10.60;1.00
13850;DHT22;6995;52.618;13.488;2022-10-31T06:00:35;10.60;1.00
13850;DHT22;6995;52.618;13.488;2022-10-31T06:03:04;10.70;1.00
13850;DHT22;6995;52.618;13.488;2022-10-31T06:05:30;10.70;1.00
13850;DHT22;6995;52.618;13.488;2022-10-31T06:07:56;10.70;1.00
13850;DHT22;6995;52.618;13.488;2022-10-31T06:10:23;10.80;1.00
13850;DHT22;6995;52.618;13.488;2022-10-31T06:12:49;10.80;1.00
13850;DHT22;6995;52.618;13.488;2022-10-31T06:15:14;10.90;1.00
13850;DHT22;6995;52.618;13.488;2022-10-31T06:17:40;10.90;1.00
13850;DHT22;6995;52.618;13.488;2022-10-31T06:20:07;10.80;1.00
13850;DHT22;6995;52.618;13.488;2022-10-31T06:22:33;10.80;1.00
13850;DHT22;6995;52.618;13.488;2022-10-31T06:24:59;10.80;1.00
13850;DHT22;6995;52.618;13.488;2022-10-31T06:27:25;10.90;1.00
13850;DHT22;6995;52.618;13.488;2022-10-31T06:29:51;11.00;1.00
13850;DHT22;6995;52.618;13.488;2022-10-31T06:32:17;11.10;1.00
13850;DHT22;6995;52.618;13.488;2022-10-31T06:34:42;11.20;1.00
13850;DHT22;6995;52.618;13.488;2022-10-31T06:37:10;11.30;1.00
13850;DHT22;6995;52.618;13.488;2022-10-31T06:39:39;11.30;1.00
13850;DHT22;6995;52.618;13.488;2022-10-31T06:42:04;11.30;1.00
13850;DHT22;6995;52.618;13.488;2022-10-31T06:44:30;11.30;1.00
13850;DHT22;6995;52.618;13.488;2022-10-31T06:46:56;11.30;1.00
13850;DHT22;6995;52.618;13.488;2022-10-31T06:49:22;11.40;1.00
13850;DHT22;6995;52.618;13.488;2022-10-31T06:51:48;11.50;1.00
13850;DHT22;6995;52.618;13.488;2022-10-31T06:54:14;11.60;1.00
13850;DHT22;6995;52.618;13.488;2022-10-31T06:56:40;11.70;1.00
13850;DHT22;6995;52.618;13.488;2022-10-31T06:59:06;11.80;1.00
13850;DHT22;6995;52.618;13.488;2022-10-31T07:01:31;11.90;1.00
13850;DHT22;6995;52.618;13.488;2022-10-31T07:03:57;12.00;1.00
13850;DHT22;6995;52.618;13.488;2022-10-31T07:06:23;12.10;1.00
13850;DHT22;6995;52.618;13.488;2022-10-31T07:08:49;12.10;1.00
13850;DHT22;6995;52.618;13.488;2022-10-31T07:11:14;12.20;1.00
13850;DHT22;6995;52.618;13.488;2022-10-31T07:13:40;12.40;1.00
13850;DHT22;6995;52.618;13.488;2022-10-31T07:16:15;12.60;1.00
13850;DHT22;6995;52.618;13.488;2022-10-31T07:18:40;12.70;1.00
13850;DHT22;6995;52.618;13.488;2022-10-31T07:21:06;12.90;1.00
13850;DHT22;6995;52.618;13.488;2022-10-31T07:23:32;13.00;1.00
13850;DHT22;6995;52.618;13.488;2022-10-31T07:25:59;13.10;1.00
13850;DHT22;6995;52.618;13.488;2022-10-31T07:28:25;13.10;1.00
13850;DHT22;6995;52.618;13.488;2022-10-31T07:30:56;13.30;1.00
13850;DHT22;6995;52.618;13.488;2022-10-31T07:33:23;13.30;1.00
13850;DHT22;6995;52.618;13.488;2022-10-31T07:35:49;13.40;1.00
13850;DHT22;6995;52.618;13.488;2022-10-31T07:38:15;13.40;1.00
13850;DHT22;6995;52.618;13.488;2022-10-31T07:40:41;13.40;1.00
13850;DHT22;6995;52.618;13.488;2022-10-31T07:43:08;13.50;1.00
13850;DHT22;6995;52.618;13.488;2022-10-31T07:45:35;13.40;1.00
13850;DHT22;6995;52.618;13.488;2022-10-31T07:48:01;13.50;1.00
13850;DHT22;6995;52.618;13.488;2022-10-31T07:50:31;13.60;1.00
13850;DHT22;6995;52.618;13.488;2022-10-31T07:55:26;13.60;1.00
13850;DHT22;6995;52.618;13.488;2022-10-31T07:57:56;13.50;1.00
13850;DHT22;6995;52.618;13.488;2022-10-31T08:00:25;13.40;1.00
13850;DHT22;6995;52.618;13.488;2022-10-31T08:03:11;13.40;1.00
13850;DHT22;6995;52.618;13.488;2022-10-31T08:05:38;13.40;1.00
13850;DHT22;6995;52.618;13.488;2022-10-31T08:08:05;13.50;1.00
13850;DHT22;6995;52.618;13.488;2022-10-31T08:10:31;13.50;1.00
13850;DHT22;6995;52.618;13.488;2022-10-31T08:13:05;13.50;1.00
13850;DHT22;6995;52.618;13.488;2022-10-31T08:15:32;13.50;1.00
13850;DHT22;6995;52.618;13.488;2022-10-31T08:17:59;13.60;1.00
13850;DHT22;6995;52.618;13.488;2022-10-31T08:20:25;13.60;1.00
13850;DHT22;6995;52.618;13.488;2022-10-31T08:22:59;13.60;1.00
13850;DHT22;6995;52.618;13.488;2022-10-31T08:25:27;13.60;1.00
13850;DHT22;6995;52.618;13.488;2022-10-31T08:27:53;13.60;1.00
13850;DHT22;6995;52.618;13.488;2022-10-31T08:30:21;13.60;1.00
13850;DHT22;6995;52.618;13.488;2022-10-31T08:32:56;13.60;1.00
13850;DHT22;6995;52.618;13.488;2022-10-31T08:35:22;13.70;1.00
13850;DHT22;6995;52.618;13.488;2022-10-31T08:37:53;13.70;1.00
13850;DHT22;6995;52.618;13.488;2022-10-31T08:40:20;13.70;1.00
13850;DHT22;6995;52.618;13.488;2022-10-31T08:42:46;13.70;1.00
13850;DHT22;6995;52.618;13.488;2022-10-31T08:45:12;13.70;1.00
13850;DHT22;6995;52.618;13.488;2022-10-31T08:47:38;13.60;1.00
13850;DHT22;6995;52.618;13.488;2022-10-31T08:50:04;13.60;1.00
13850;DHT22;6995;52.618;13.488;2022-10-31T08:52:29;13.60;1.00
13850;DHT22;6995;52.618;13.488;2022-10-31T08:54:55;13.60;1.00
13850;DHT22;6995;52.618;13.488;2022-10-31T08:57:21;13.60;1.00
13850;DHT22;6995;52.618;13.488;2022-10-31T08:59:46;13.70;1.00
13850;DHT22;6995;52.618;13.488;2022-10-31T09:02:12;13.70;1.00
13850;DHT22;6995;52.618;13.488;2022-10-31T09:04:38;13.70;1.00
13850;DHT22;6995;52.618;13.488;2022-10-31T09:07:03;13.80;1.00
13850;DHT22;6995;52.618;13.488;2022-10-31T09:09:29;13.90;1.00
13850;DHT22;6995;52.618;13.488;2022-10-31T09:11:56;14.00;1.00
13850;DHT22;6995;52.618;13.488;2022-10-31T09:14:21;14.20;1.00
13850;DHT22;6995;52.618;13.488;2022-10-31T09:16:50;14.40;1.00
13850;DHT22;6995;52.618;13.488;2022-10-31T09:19:16;14.50;1.00
13850;DHT22;6995;52.618;13.488;2022-10-31T09:21:42;14.50;1.00
13850;DHT22;6995;52.618;13.488;2022-10-31T09:24:11;14.60;1.00
13850;DHT22;6995;52.618;13.488;2022-10-31T09:26:36;14.60;1.00
13850;DHT22;6995;52.618;13.488;2022-10-31T09:29:02;14.60;1.00
13850;DHT22;6995;52.618;13.488;2022-10-31T09:31:28;14.70;1.00
13850;DHT22;6995;52.618;13.488;2022-10-31T09:33:54;14.80;1.00
13850;DHT22;6995;52.618;13.488;2022-10-31T09:36:19;14.80;1.00
13850;DHT22;6995;52.618;13.488;2022-10-31T09:38:45;14.80;1.00
13850;DHT22;6995;52.618;13.488;2022-10-31T09:41:29;14.70;1.00
13850;DHT22;6995;52.618;13.488;2022-10-31T09:44:11;14.70;1.00
13850;DHT22;6995;52.618;13.488;2022-10-31T09:47:00;14.80;1.00
13850;DHT22;6995;52.618;13.488;2022-10-31T09:52:36;14.80;1.00
13850;DHT22;6995;52.618;13.488;2022-10-31T09:55:12;14.90;1.00
13850;DHT22;6995;52.618;13.488;2022-10-31T09:57:41;14.90;1.00
13850;DHT22;6995;52.618;13.488;2022-10-31T10:00:15;14.80;1.00
13850;DHT22;6995;52.618;13.488;2022-10-31T10:03:41;14.90;1.00
13850;DHT22;6995;52.618;13.488;2022-10-31T10:05:53;15.00;1.00
13850;DHT22;6995;52.618;13.488;2022-10-31T10:08:23;15.20;1.00
13850;DHT22;6995;52.618;13.488;2022-10-31T10:25:20;16.10;1.00
13850;DHT22;6995;52.618;13.488;2022-10-31T10:28:03;16.20;1.00
13850;DHT22;6995;52.618;13.488;2022-10-31T10:33:12;16.30;1.00
13850;DHT22;6995;52.618;13.488;2022-10-31T10:35:49;16.40;1.00
13850;DHT22;6995;52.618;13.488;2022-10-31T10:38:17;16.40;99.90
13850;DHT22;6995;52.618;13.488;2022-10-31T10:40:44;16.40;99.90
13850;DHT22;6995;52.618;13.488;2022-10-31T10:43:24;16.50;99.90
13850;DHT22;6995;52.618;13.488;2022-10-31T10:54:45;16.90;99.90
13850;DHT22;6995;52.618;13.488;2022-10-31T11:00:01;17.20;99.90
13850;DHT22;6995;52.618;13.488;2022-10-31T11:02:31;17.30;99.90
13850;DHT22;6995;52.618;13.488;2022-10-31T11:04:58;17.30;99.90
13850;DHT22;6995;52.618;13.488;2022-10-31T11:07:25;17.50;99.90
13850;DHT22;6995;52.618;13.488;2022-10-31T11:10:06;17.50;99.90
13850;DHT22;6995;52.618;13.488;2022-10-31T11:12:39;17.60;99.90
13850;DHT22;6995;52.618;13.488;2022-10-31T11:15:20;17.70;99.90
13850;DHT22;6995;52.618;13.488;2022-10-31T11:17:49;17.80;99.90
13850;DHT22;6995;52.618;13.488;2022-10-31T11:22:46;17.70;99.90
13850;DHT22;6995;52.618;13.488;2022-10-31T11:25:26;17.70;99.90
13850;DHT22;6995;52.618;13.488;2022-10-31T11:28:10;17.80;99.90
13850;DHT22;6995;52.618;13.488;2022-10-31T11:33:26;18.00;99.90
13850;DHT22;6995;52.618;13.488;2022-10-31T11:35:53;18.20;99.90
13850;DHT22;6995;52.618;13.488;2022-10-31T11:38:21;18.40;99.90
13850;DHT22;6995;52.618;13.488;2022-10-31T11:43:19;18.30;99.90
13850;DHT22;6995;52.618;13.488;2022-10-31T11:45:45;18.40;99.90
13850;DHT22;6995;52.618;13.488;2022-10-31T11:48:20;18.40;99.90
13850;DHT22;6995;52.618;13.488;2022-10-31T11:50:55;18.40;99.90
13850;DHT22;6995;52.618;13.488;2022-10-31T11:53:30;18.40;99.90
13850;DHT22;6995;52.618;13.488;2022-10-31T11:56:10;18.40;99.90
13850;DHT22;6995;52.618;13.488;2022-10-31T11:58:37;18.60;99.90
13850;DHT22;6995;52.618;13.488;2022-10-31T12:01:03;18.60;99.90
13850;DHT22;6995;52.618;13.488;2022-10-31T12:03:41;18.70;99.90
13850;DHT22;6995;52.618;13.488;2022-10-31T12:06:18;18.70;99.90
13850;DHT22;6995;52.618;13.488;2022-10-31T12:08:44;18.80;99.90
13850;DHT22;6995;52.618;13.488;2022-10-31T12:25:30;19.20;99.90
13850;DHT22;6995;52.618;13.488;2022-10-31T12:28:08;19.30;99.90
13850;DHT22;6995;52.618;13.488;2022-10-31T12:42:17;20.30;99.90
13850;DHT22;6995;52.618;13.488;2022-10-31T12:44:59;20.40;99.90
13850;DHT22;6995;52.618;13.488;2022-10-31T12:56:06;21.00;99.90
13850;DHT22;6995;52.618;13.488;2022-10-31T12:58:43;21.00;99.90
13850;DHT22;6995;52.618;13.488;2022-10-31T13:01:41;21.00;99.90
13850;DHT22;6995;52.618;13.488;2022-10-31T13:04:23;21.10;99.90
13850;DHT22;6995;52.618;13.488;2022-10-31T13:06:57;21.10;99.90
13850;DHT22;6995;52.618;13.488;2022-10-31T13:09:35;21.20;99.90
13850;DHT22;6995;52.618;13.488;2022-10-31T13:12:07;21.50;99.90
13850;DHT22;6995;52.618;13.488;2022-10-31T13:14:40;21.70;99.90
13850;DHT22;6995;52.618;13.488;2022-10-31T13:20:28;21.90;99.90
13850;DHT22;6995;52.618;13.488;2022-10-31T13:25:44;22.20;99.90
13850;DHT22;6995;52.618;13.488;2022-10-31T13:28:52;22.10;99.90
13850;DHT22;6995;52.618;13.488;2022-10-31T13:31:20;22.00;99.90
13850;DHT22;6995;52.618;13.488;2022-10-31T13:34:01;21.90;99.90
13850;DHT22;6995;52.618;13.488;2022-10-31T13:36:38;22.10;99.90
13850;DHT22;6995;52.618;13.488;2022-10-31T13:44:45;22.50;99.90
13850;DHT22;6995;52.618;13.488;2022-10-31T13:49:46;21.70;99.90
13850;DHT22;6995;52.618;13.488;2022-10-31T13:52:15;21.30;99.90
13850;DHT22;6995;52.618;13.488;2022-10-31T13:54:49;21.00;99.90
13850;DHT22;6995;52.618;13.488;2022-10-31T13:57:31;20.80;99.90
13850;DHT22;6995;52.618;13.488;2022-10-31T14:00:21;20.60;99.90
13850;DHT22;6995;52.618;13.488;2022-10-31T14:02:53;20.50;99.90
13850;DHT22;6995;52.618;13.488;2022-10-31T14:05:27;20.40;99.90
13850;DHT22;6995;52.618;13.488;2022-10-31T14:07:56;20.40;99.90
13850;DHT22;6995;52.618;13.488;2022-10-31T14:12:51;20.40;99.90
13850;DHT22;6995;52.618;13.488;2022-10-31T14:15:19;20.20;99.90
13850;DHT22;6995;52.618;13.488;2022-10-31T14:17:52;19.90;99.90
13850;DHT22;6995;52.618;13.488;2022-10-31T14:20:24;19.80;99.90
13850;DHT22;6995;52.618;13.488;2022-10-31T14:22:50;19.70;99.90
13850;DHT22;6995;52.618;13.488;2022-10-31T14:27:55;19.40;99.90
13850;DHT22;6995;52.618;13.488;2022-10-31T14:30:24;19.20;99.90
13850;DHT22;6995;52.618;13.488;2022-10-31T14:32:58;19.00;99.90
13850;DHT22;6995;52.618;13.488;2022-10-31T14:36:11;18.80;99.90
13850;DHT22;6995;52.618;13.488;2022-10-31T14:51:52;17.20;99.90
13850;DHT22;6995;52.618;13.488;2022-10-31T14:54:39;17.20;99.90
13850;DHT22;6995;52.618;13.488;2022-10-31T14:57:21;17.10;99.90
13850;DHT22;6995;52.618;13.488;2022-10-31T14:59:52;16.90;99.90
13850;DHT22;6995;52.618;13.488;2022-10-31T15:02:24;16.80;99.90
13850;DHT22;6995;52.618;13.488;2022-10-31T15:04:52;16.60;99.90
13850;DHT22;6995;52.618;13.488;2022-10-31T15:07:26;16.50;99.90
13850;DHT22;6995;52.618;13.488;2022-10-31T15:10:04;16.40;99.90
13850;DHT22;6995;52.618;13.488;2022-10-31T15:14:57;16.00;1.00
13850;DHT22;6995;52.618;13.488;2022-10-31T15:17:24;15.80;1.00
13850;DHT22;6995;52.618;13.488;2022-10-31T15:19:51;15.80;1.00
13850;DHT22;6995;52.618;13.488;2022-10-31T15:22:19;15.70;1.00
13850;DHT22;6995;52.618;13.488;2022-10-31T15:24:47;15.60;1.00
13850;DHT22;6995;52.618;13.488;2022-10-31T15:27:16;15.50;1.00
13850;DHT22;6995;52.618;13.488;2022-10-31T15:32:22;15.40;1.00
13850;DHT22;6995;52.618;13.488;2022-10-31T15:34:50;15.40;1.00
13850;DHT22;6995;52.618;13.488;2022-10-31T15:37:18;15.30;1.00
13850;DHT22;6995;52.618;13.488;2022-10-31T15:39:47;15.30;1.00
13850;DHT22;6995;52.618;13.488;2022-10-31T15:42:28;15.20;1.00
13850;DHT22;6995;52.618;13.488;2022-10-31T15:47:36;15.10;1.00
13850;DHT22;6995;52.618;13.488;2022-10-31T15:50:18;15.00;1.00
13850;DHT22;6995;52.618;13.488;2022-10-31T15:52:48;14.90;1.00
13850;DHT22;6995;52.618;13.488;2022-10-31T15:55:19;14.90;1.00
13850;DHT22;6995;52.618;13.488;2022-10-31T15:57:48;14.80;1.00
13850;DHT22;6995;52.618;13.488;2022-10-31T16:00:35;14.80;1.00
13850;DHT22;6995;52.618;13.488;2022-10-31T16:05:51;14.70;1.00
13850;DHT22;6995;52.618;13.488;2022-10-31T16:08:24;14.70;1.00
13850;DHT22;6995;52.618;13.488;2022-10-31T16:10:51;14.70;1.00
13850;DHT22;6995;52.618;13.488;2022-10-31T16:13:17;14.60;1.00
13850;DHT22;6995;52.618;13.488;2022-10-31T16:15:55;14.60;1.00
13850;DHT22;6995;52.618;13.488;2022-10-31T16:18:21;14.70;1.00
13850;DHT22;6995;52.618;13.488;2022-10-31T16:20:53;14.70;1.00
13850;DHT22;6995;52.618;13.488;2022-10-31T16:23:22;14.70;1.00
13850;DHT22;6995;52.618;13.488;2022-10-31T16:25:48;14.70;1.00
13850;DHT22;6995;52.618;13.488;2022-10-31T16:28:25;14.60;1.00
13850;DHT22;6995;52.618;13.488;2022-10-31T16:30:56;14.70;1.00
13850;DHT22;6995;52.618;13.488;2022-10-31T16:33:29;14.70;1.00
13850;DHT22;6995;52.618;13.488;2022-10-31T16:35:57;14.70;1.00
13850;DHT22;6995;52.618;13.488;2022-10-31T16:38:23;14.70;1.00
13850;DHT22;6995;52.618;13.488;2022-10-31T16:40:49;14.80;1.00
13850;DHT22;6995;52.618;13.488;2022-10-31T16:43:17;14.80;1.00
13850;DHT22;6995;52.618;13.488;2022-10-31T16:45:49;14.80;1.00
13850;DHT22;6995;52.618;13.488;2022-10-31T16:48:19;14.80;1.00
13850;DHT22;6995;52.618;13.488;2022-10-31T16:50:47;14.80;1.00
13850;DHT22;6995;52.618;13.488;2022-10-31T16:53:14;14.90;1.00
13850;DHT22;6995;52.618;13.488;2022-10-31T16:58:24;14.90;1.00
13850;DHT22;6995;52.618;13.488;2022-10-31T17:00:51;14.80;1.00
13850;DHT22;6995;52.618;13.488;2022-10-31T17:03:17;14.80;1.00
13850;DHT22;6995;52.618;13.488;2022-10-31T17:05:43;14.80;1.00
13850;DHT22;6995;52.618;13.488;2022-10-31T17:08:08;14.80;1.00
13850;DHT22;6995;52.618;13.488;2022-10-31T17:10:37;14.80;1.00
13850;DHT22;6995;52.618;13.488;2022-10-31T17:13:05;14.80;1.00
13850;DHT22;6995;52.618;13.488;2022-10-31T17:15:43;14.70;1.00
13850;DHT22;6995;52.618;13.488;2022-10-31T17:18:15;14.70;1.00
13850;DHT22;6995;52.618;13.488;2022-10-31T17:20:42;14.70;1.00
13850;DHT22;6995;52.618;13.488;2022-10-31T17:23:10;14.70;1.00
13850;DHT22;6995;52.618;13.488;2022-10-31T17:25:36;14.70;1.00
13850;DHT22;6995;52.618;13.488;2022-10-31T17:28:02;14.60;1.00
13850;DHT22;6995;52.618;13.488;2022-10-31T17:30:27;14.60;1.00
13850;DHT22;6995;52.618;13.488;2022-10-31T17:32:53;14.60;1.00
13850;DHT22;6995;52.618;13.488;2022-10-31T17:35:20;14.60;1.00
13850;DHT22;6995;52.618;13.488;2022-10-31T17:37:47;14.60;1.00
13850;DHT22;6995;52.618;13.488;2022-10-31T17:40:16;14.60;1.00
13850;DHT22;6995;52.618;13.488;2022-10-31T17:42:47;14.70;1.00
13850;DHT22;6995;52.618;13.488;2022-10-31T17:45:13;14.70;1.00
13850;DHT22;6995;52.618;13.488;2022-10-31T17:47:38;14.60;1.00
13850;DHT22;6995;52.618;13.488;2022-10-31T17:50:04;14.60;1.00
13850;DHT22;6995;52.618;13.488;2022-10-31T17:52:30;14.60;1.00
13850;DHT22;6995;52.618;13.488;2022-10-31T17:54:59;14.60;1.00
13850;DHT22;6995;52.618;13.488;2022-10-31T17:57:24;14.50;1.00
13850;DHT22;6995;52.618;13.488;2022-10-31T17:59:50;14.60;1.00
13850;DHT22;6995;52.618;13.488;2022-10-31T18:02:16;14.60;1.00
13850;DHT22;6995;52.618;13.488;2022-10-31T18:04:41;14.50;1.00
13850;DHT22;6995;52.618;13.488;2022-10-31T18:07:10;14.60;1.00
13850;DHT22;6995;52.618;13.488;2022-10-31T18:09:36;14.50;1.00
13850;DHT22;6995;52.618;13.488;2022-10-31T18:12:02;14.50;1.00
13850;DHT22;6995;52.618;13.488;2022-10-31T18:14:28;14.40;1.00
13850;DHT22;6995;52.618;13.488;2022-10-31T18:16:54;14.40;1.00
13850;DHT22;6995;52.618;13.488;2022-10-31T18:19:19;14.40;1.00
13850;DHT22;6995;52.618;13.488;2022-10-31T18:21:45;14.40;1.00
13850;DHT22;6995;52.618;13.488;2022-10-31T18:24:11;14.40;1.00
13850;DHT22;6995;52.618;13.488;2022-10-31T18:26:37;14.50;1.00
13850;DHT22;6995;52.618;13.488;2022-10-31T18:29:04;14.50;1.00